METAR Data
IDs: Format: Raw Decoded Include TAF

Data at: 2058 UTC 02 Aug 2021

UKKK 022030Z 30007MPS CAVOK 20/14 Q1011 R26/70D NOSIG